עמוד ראשי
METAR-TAF:

METAR-TAF

שדות תעופה :

יומה, אריזונה, ארצות הברית

קו רוחב: 32-37-25N, קו אורך: 113-45-50W, גובה: 64מטר

תצפית מזג אוויר נוכחית

הדו"ח נערך לפני 49דקות, בשעה 08:57 UTC
רוח רגועה
טמפרטורת 28 צלסיוס
לחות 30%
לחץ 1003 hPa
ראות: 16.1קילומטר
שמיים נקיים

METAR: KNYL 160857Z AUTO 00000KT 10SM CLR 28/09 A2962 RMK AO2 SLP026 T02830089 56010

זמן: 02:46 (09:46 UTC)

תחזית

תחזית בתוקף מ 16 ב 09 UTC עד 17 ב 09 UTC
רוח 6קשר מכיוון דרום/דרום-מזרח
ראות 10 קילומטר או יותר
שמיים נקיים
מ 16 ב 1530UTC
רוח 10קשר מכיוון דרום/דרום-מזרח עם משבים עד 15קשר
ראות 10 קילומטר או יותר
שמיים נקיים
יעשה מ
16 ב 20 UTC עד 16 ב 22 UTC
רוח 8קשר מכיוון דרום
ראות 10 קילומטר או יותר
שמיים נקיים

TAF: KNYL 1609/1709 16006KT 9999 SKC QNH2965INS FM161530 15010G15KT 9999 SKC QNH2958INS BECMG 1620/1622 18008KT 9999 SKC QNH2950INS T22/1615Z T43/1623Z

תצפיות ותחזיות מזג אוויר לגבי יותר מ- 4,000 שדות תעופה ברחבי העולם. דוחות METAR ו- TAF.

התחנות הזמינות מסומנות בנקודות צהובות ואדומות על גבי המפה.

העבר את העכבר לנקודה הצבעונית על מנת לראות את שם התחנה.

לאחר מכן, לחץ כדי לראות את תוכן ואת תחזיות מזג האוויר.

כדי לשנות את המפה: לחץ על הכפתורים הירוקים עם הפלוס השחור כדי להתקרב; על הכפתור הירוק עם המקף כדי להתרחק; או בחיצים הירוקים למפות סמוכות.


METAR-TAF: